sensor_id;sensor_type;location;lat;lon;timestamp;P1;durP1;ratioP1;P2;durP2;ratioP2
14768;SDS011;7476;49.404;11.152;2023-04-24T00:01:19;2.87;;;2.57;;
14768;SDS011;7476;49.404;11.152;2023-04-24T00:03:46;3.77;;;2.50;;
14768;SDS011;7476;49.404;11.152;2023-04-24T00:06:13;4.20;;;2.70;;
14768;SDS011;7476;49.404;11.152;2023-04-24T00:08:43;3.17;;;2.30;;
14768;SDS011;7476;49.404;11.152;2023-04-24T00:11:09;4.73;;;2.50;;
14768;SDS011;7476;49.404;11.152;2023-04-24T00:13:37;3.10;;;2.33;;
14768;SDS011;7476;49.404;11.152;2023-04-24T00:16:04;2.83;;;2.50;;
14768;SDS011;7476;49.404;11.152;2023-04-24T00:18:30;3.43;;;2.70;;
14768;SDS011;7476;49.404;11.152;2023-04-24T00:20:57;3.13;;;2.47;;
14768;SDS011;7476;49.404;11.152;2023-04-24T00:23:24;3.00;;;2.30;;
14768;SDS011;7476;49.404;11.152;2023-04-24T00:25:52;3.37;;;2.50;;
14768;SDS011;7476;49.404;11.152;2023-04-24T00:28:18;4.47;;;2.70;;
14768;SDS011;7476;49.404;11.152;2023-04-24T00:30:45;2.73;;;2.50;;
14768;SDS011;7476;49.404;11.152;2023-04-24T00:33:12;2.57;;;2.30;;
14768;SDS011;7476;49.404;11.152;2023-04-24T00:35:38;3.60;;;2.50;;
14768;SDS011;7476;49.404;11.152;2023-04-24T00:38:05;3.00;;;2.37;;
14768;SDS011;7476;49.404;11.152;2023-04-24T00:40:32;3.27;;;2.47;;
14768;SDS011;7476;49.404;11.152;2023-04-24T00:43:00;3.93;;;2.43;;
14768;SDS011;7476;49.404;11.152;2023-04-24T00:45:27;3.37;;;3.07;;
14768;SDS011;7476;49.404;11.152;2023-04-24T00:47:56;2.83;;;2.50;;
14768;SDS011;7476;49.404;11.152;2023-04-24T00:50:23;3.70;;;2.80;;
14768;SDS011;7476;49.404;11.152;2023-04-24T00:52:50;2.83;;;2.40;;
14768;SDS011;7476;49.404;11.152;2023-04-24T00:55:17;4.50;;;2.67;;
14768;SDS011;7476;49.404;11.152;2023-04-24T00:57:44;2.63;;;2.23;;
14768;SDS011;7476;49.404;11.152;2023-04-24T01:00:14;2.60;;;2.20;;
14768;SDS011;7476;49.404;11.152;2023-04-24T01:02:43;3.87;;;2.10;;
14768;SDS011;7476;49.404;11.152;2023-04-24T01:05:11;2.37;;;2.17;;
14768;SDS011;7476;49.404;11.152;2023-04-24T01:07:40;2.70;;;2.17;;
14768;SDS011;7476;49.404;11.152;2023-04-24T01:10:10;2.53;;;2.33;;
14768;SDS011;7476;49.404;11.152;2023-04-24T01:12:38;3.03;;;2.47;;
14768;SDS011;7476;49.404;11.152;2023-04-24T01:15:05;4.73;;;2.63;;
14768;SDS011;7476;49.404;11.152;2023-04-24T01:17:34;2.40;;;2.20;;
14768;SDS011;7476;49.404;11.152;2023-04-24T01:20:02;2.97;;;2.30;;
14768;SDS011;7476;49.404;11.152;2023-04-24T01:22:32;2.83;;;2.60;;
14768;SDS011;7476;49.404;11.152;2023-04-24T01:24:59;2.33;;;2.13;;
14768;SDS011;7476;49.404;11.152;2023-04-24T01:27:26;3.27;;;2.40;;
14768;SDS011;7476;49.404;11.152;2023-04-24T01:29:52;3.63;;;2.57;;
14768;SDS011;7476;49.404;11.152;2023-04-24T01:32:19;2.70;;;2.33;;
14768;SDS011;7476;49.404;11.152;2023-04-24T01:34:46;2.43;;;2.17;;
14768;SDS011;7476;49.404;11.152;2023-04-24T01:37:13;3.77;;;2.27;;
14768;SDS011;7476;49.404;11.152;2023-04-24T01:39:42;2.37;;;2.17;;
14768;SDS011;7476;49.404;11.152;2023-04-24T01:42:08;2.67;;;2.07;;
14768;SDS011;7476;49.404;11.152;2023-04-24T01:44:35;2.77;;;2.20;;
14768;SDS011;7476;49.404;11.152;2023-04-24T01:47:02;2.47;;;2.00;;
14768;SDS011;7476;49.404;11.152;2023-04-24T01:49:29;4.43;;;2.10;;
14768;SDS011;7476;49.404;11.152;2023-04-24T01:51:56;2.57;;;2.37;;
14768;SDS011;7476;49.404;11.152;2023-04-24T01:54:22;2.60;;;2.33;;
14768;SDS011;7476;49.404;11.152;2023-04-24T01:56:50;2.70;;;2.13;;
14768;SDS011;7476;49.404;11.152;2023-04-24T01:59:17;2.47;;;2.27;;
14768;SDS011;7476;49.404;11.152;2023-04-24T02:01:44;3.30;;;2.20;;
14768;SDS011;7476;49.404;11.152;2023-04-24T02:04:11;3.33;;;2.40;;
14768;SDS011;7476;49.404;11.152;2023-04-24T02:06:38;2.90;;;2.00;;
14768;SDS011;7476;49.404;11.152;2023-04-24T02:09:05;2.80;;;2.30;;
14768;SDS011;7476;49.404;11.152;2023-04-24T02:11:32;4.07;;;2.53;;
14768;SDS011;7476;49.404;11.152;2023-04-24T02:14:00;3.23;;;2.20;;
14768;SDS011;7476;49.404;11.152;2023-04-24T02:16:27;2.63;;;2.17;;
14768;SDS011;7476;49.404;11.152;2023-04-24T02:18:57;2.43;;;2.23;;
14768;SDS011;7476;49.404;11.152;2023-04-24T02:21:23;3.47;;;2.10;;
14768;SDS011;7476;49.404;11.152;2023-04-24T02:23:50;4.30;;;2.33;;
14768;SDS011;7476;49.404;11.152;2023-04-24T02:26:17;2.50;;;2.13;;
14768;SDS011;7476;49.404;11.152;2023-04-24T02:28:43;3.10;;;2.27;;
14768;SDS011;7476;49.404;11.152;2023-04-24T02:31:11;2.50;;;2.27;;
14768;SDS011;7476;49.404;11.152;2023-04-24T02:33:38;3.33;;;2.30;;
14768;SDS011;7476;49.404;11.152;2023-04-24T02:36:05;2.30;;;2.10;;
14768;SDS011;7476;49.404;11.152;2023-04-24T02:38:31;3.20;;;2.50;;
14768;SDS011;7476;49.404;11.152;2023-04-24T02:40:58;4.03;;;2.63;;
14768;SDS011;7476;49.404;11.152;2023-04-24T02:43:25;2.87;;;2.60;;
14768;SDS011;7476;49.404;11.152;2023-04-24T02:45:52;3.47;;;2.67;;
14768;SDS011;7476;49.404;11.152;2023-04-24T02:48:20;2.67;;;2.43;;
14768;SDS011;7476;49.404;11.152;2023-04-24T02:50:46;5.80;;;2.70;;
14768;SDS011;7476;49.404;11.152;2023-04-24T02:53:13;3.17;;;2.43;;
14768;SDS011;7476;49.404;11.152;2023-04-24T02:55:40;3.10;;;2.50;;
14768;SDS011;7476;49.404;11.152;2023-04-24T02:58:06;4.03;;;2.40;;
14768;SDS011;7476;49.404;11.152;2023-04-24T03:00:33;3.03;;;2.70;;
14768;SDS011;7476;49.404;11.152;2023-04-24T03:03:00;2.40;;;2.20;;
14768;SDS011;7476;49.404;11.152;2023-04-24T03:05:29;3.83;;;2.63;;
14768;SDS011;7476;49.404;11.152;2023-04-24T03:07:56;2.90;;;2.37;;
14768;SDS011;7476;49.404;11.152;2023-04-24T03:10:22;2.87;;;2.37;;
14768;SDS011;7476;49.404;11.152;2023-04-24T03:12:49;2.73;;;2.30;;
14768;SDS011;7476;49.404;11.152;2023-04-24T03:15:16;3.03;;;2.20;;
14768;SDS011;7476;49.404;11.152;2023-04-24T03:17:42;2.73;;;2.43;;
14768;SDS011;7476;49.404;11.152;2023-04-24T03:20:09;3.13;;;2.60;;
14768;SDS011;7476;49.404;11.152;2023-04-24T03:22:37;4.37;;;2.77;;
14768;SDS011;7476;49.404;11.152;2023-04-24T03:25:04;2.67;;;2.47;;
14768;SDS011;7476;49.404;11.152;2023-04-24T03:27:33;4.20;;;2.70;;
14768;SDS011;7476;49.404;11.152;2023-04-24T03:29:59;3.13;;;2.77;;
14768;SDS011;7476;49.404;11.152;2023-04-24T03:32:27;2.93;;;2.63;;
14768;SDS011;7476;49.404;11.152;2023-04-24T03:34:53;2.80;;;2.60;;
14768;SDS011;7476;49.404;11.152;2023-04-24T03:37:20;3.93;;;2.77;;
14768;SDS011;7476;49.404;11.152;2023-04-24T03:39:48;4.27;;;3.33;;
14768;SDS011;7476;49.404;11.152;2023-04-24T03:42:14;2.87;;;2.63;;
14768;SDS011;7476;49.404;11.152;2023-04-24T03:44:41;3.30;;;2.70;;
14768;SDS011;7476;49.404;11.152;2023-04-24T03:47:08;4.53;;;2.83;;
14768;SDS011;7476;49.404;11.152;2023-04-24T03:49:34;3.00;;;2.60;;
14768;SDS011;7476;49.404;11.152;2023-04-24T03:52:01;2.70;;;2.50;;
14768;SDS011;7476;49.404;11.152;2023-04-24T03:54:28;3.77;;;2.70;;
14768;SDS011;7476;49.404;11.152;2023-04-24T03:56:56;4.67;;;2.37;;
14768;SDS011;7476;49.404;11.152;2023-04-24T03:59:23;3.50;;;2.63;;
14768;SDS011;7476;49.404;11.152;2023-04-24T04:01:49;5.83;;;3.37;;
14768;SDS011;7476;49.404;11.152;2023-04-24T04:04:16;3.57;;;2.90;;
14768;SDS011;7476;49.404;11.152;2023-04-24T04:06:42;3.10;;;2.43;;
14768;SDS011;7476;49.404;11.152;2023-04-24T04:09:11;3.30;;;3.00;;
14768;SDS011;7476;49.404;11.152;2023-04-24T04:11:38;3.20;;;2.90;;
14768;SDS011;7476;49.404;11.152;2023-04-24T04:14:05;3.07;;;2.77;;
14768;SDS011;7476;49.404;11.152;2023-04-24T04:16:32;5.03;;;3.80;;
14768;SDS011;7476;49.404;11.152;2023-04-24T04:18:59;2.80;;;2.60;;
14768;SDS011;7476;49.404;11.152;2023-04-24T04:21:25;3.50;;;3.20;;
14768;SDS011;7476;49.404;11.152;2023-04-24T04:23:52;3.47;;;3.00;;
14768;SDS011;7476;49.404;11.152;2023-04-24T04:26:19;4.47;;;4.03;;
14768;SDS011;7476;49.404;11.152;2023-04-24T04:28:50;4.40;;;3.53;;
14768;SDS011;7476;49.404;11.152;2023-04-24T04:31:18;4.90;;;3.70;;
14768;SDS011;7476;49.404;11.152;2023-04-24T04:33:45;4.43;;;4.03;;
14768;SDS011;7476;49.404;11.152;2023-04-24T04:36:12;4.77;;;3.93;;
14768;SDS011;7476;49.404;11.152;2023-04-24T04:38:39;6.40;;;4.47;;
14768;SDS011;7476;49.404;11.152;2023-04-24T04:41:07;5.07;;;3.90;;
14768;SDS011;7476;49.404;11.152;2023-04-24T04:43:34;5.07;;;3.90;;
14768;SDS011;7476;49.404;11.152;2023-04-24T04:46:01;4.40;;;4.00;;
14768;SDS011;7476;49.404;11.152;2023-04-24T04:48:29;4.60;;;3.87;;
14768;SDS011;7476;49.404;11.152;2023-04-24T04:50:56;4.70;;;3.80;;
14768;SDS011;7476;49.404;11.152;2023-04-24T04:53:23;4.53;;;3.70;;
14768;SDS011;7476;49.404;11.152;2023-04-24T04:55:50;5.00;;;4.40;;
14768;SDS011;7476;49.404;11.152;2023-04-24T04:58:16;4.37;;;3.97;;
14768;SDS011;7476;49.404;11.152;2023-04-24T05:00:43;4.57;;;4.17;;
14768;SDS011;7476;49.404;11.152;2023-04-24T05:03:09;6.90;;;3.90;;
14768;SDS011;7476;49.404;11.152;2023-04-24T05:05:37;5.57;;;4.10;;
14768;SDS011;7476;49.404;11.152;2023-04-24T05:08:05;4.63;;;3.63;;
14768;SDS011;7476;49.404;11.152;2023-04-24T05:10:33;4.37;;;3.73;;
14768;SDS011;7476;49.404;11.152;2023-04-24T05:12:59;4.67;;;4.03;;
14768;SDS011;7476;49.404;11.152;2023-04-24T05:15:26;4.00;;;3.60;;
14768;SDS011;7476;49.404;11.152;2023-04-24T05:17:53;6.73;;;3.70;;
14768;SDS011;7476;49.404;11.152;2023-04-24T05:20:19;6.13;;;3.80;;
14768;SDS011;7476;49.404;11.152;2023-04-24T05:22:47;5.50;;;4.10;;
14768;SDS011;7476;49.404;11.152;2023-04-24T05:25:14;6.63;;;4.13;;
14768;SDS011;7476;49.404;11.152;2023-04-24T05:27:40;4.67;;;3.53;;
14768;SDS011;7476;49.404;11.152;2023-04-24T05:30:08;4.83;;;4.13;;
14768;SDS011;7476;49.404;11.152;2023-04-24T05:32:35;5.27;;;3.87;;
14768;SDS011;7476;49.404;11.152;2023-04-24T05:35:02;5.13;;;4.53;;
14768;SDS011;7476;49.404;11.152;2023-04-24T05:37:29;5.43;;;4.27;;
14768;SDS011;7476;49.404;11.152;2023-04-24T05:39:57;4.23;;;3.83;;
14768;SDS011;7476;49.404;11.152;2023-04-24T05:42:23;4.83;;;4.10;;
14768;SDS011;7476;49.404;11.152;2023-04-24T05:44:50;6.60;;;4.27;;
14768;SDS011;7476;49.404;11.152;2023-04-24T05:47:18;7.17;;;3.97;;
14768;SDS011;7476;49.404;11.152;2023-04-24T05:49:46;4.77;;;3.70;;
14768;SDS011;7476;49.404;11.152;2023-04-24T05:52:13;4.40;;;3.83;;
14768;SDS011;7476;49.404;11.152;2023-04-24T05:54:39;4.57;;;3.70;;
14768;SDS011;7476;49.404;11.152;2023-04-24T05:57:07;4.43;;;3.70;;
14768;SDS011;7476;49.404;11.152;2023-04-24T05:59:36;4.67;;;3.93;;
14768;SDS011;7476;49.404;11.152;2023-04-24T06:02:03;5.53;;;4.00;;
14768;SDS011;7476;49.404;11.152;2023-04-24T06:04:30;3.97;;;3.57;;
14768;SDS011;7476;49.404;11.152;2023-04-24T06:06:57;4.17;;;3.77;;
14768;SDS011;7476;49.404;11.152;2023-04-24T06:09:24;4.30;;;3.80;;
14768;SDS011;7476;49.404;11.152;2023-04-24T06:11:51;3.70;;;3.40;;
14768;SDS011;7476;49.404;11.152;2023-04-24T06:14:19;4.20;;;3.80;;
14768;SDS011;7476;49.404;11.152;2023-04-24T06:16:46;5.30;;;3.70;;
14768;SDS011;7476;49.404;11.152;2023-04-24T06:19:13;4.10;;;3.33;;
14768;SDS011;7476;49.404;11.152;2023-04-24T06:21:39;3.93;;;3.53;;
14768;SDS011;7476;49.404;11.152;2023-04-24T06:24:06;3.27;;;2.97;;
14768;SDS011;7476;49.404;11.152;2023-04-24T06:26:33;5.20;;;3.77;;
14768;SDS011;7476;49.404;11.152;2023-04-24T06:28:59;4.80;;;3.27;;
14768;SDS011;7476;49.404;11.152;2023-04-24T06:31:27;7.47;;;4.20;;
14768;SDS011;7476;49.404;11.152;2023-04-24T06:33:54;3.73;;;2.70;;
14768;SDS011;7476;49.404;11.152;2023-04-24T06:36:21;4.10;;;3.33;;
14768;SDS011;7476;49.404;11.152;2023-04-24T06:38:47;4.70;;;3.00;;
14768;SDS011;7476;49.404;11.152;2023-04-24T06:41:14;3.50;;;2.40;;
14768;SDS011;7476;49.404;11.152;2023-04-24T06:43:41;2.37;;;2.17;;
14768;SDS011;7476;49.404;11.152;2023-04-24T06:46:07;4.17;;;2.30;;
14768;SDS011;7476;49.404;11.152;2023-04-24T06:48:35;4.23;;;2.00;;
14768;SDS011;7476;49.404;11.152;2023-04-24T06:51:02;2.13;;;1.87;;
14768;SDS011;7476;49.404;11.152;2023-04-24T06:53:29;3.60;;;1.80;;
14768;SDS011;7476;49.404;11.152;2023-04-24T06:55:55;2.57;;;1.67;;
14768;SDS011;7476;49.404;11.152;2023-04-24T06:58:22;2.00;;;1.80;;
14768;SDS011;7476;49.404;11.152;2023-04-24T07:00:50;3.80;;;1.83;;
14768;SDS011;7476;49.404;11.152;2023-04-24T07:03:16;3.47;;;1.67;;
14768;SDS011;7476;49.404;11.152;2023-04-24T07:05:44;1.90;;;1.70;;
14768;SDS011;7476;49.404;11.152;2023-04-24T07:08:11;2.57;;;1.60;;
14768;SDS011;7476;49.404;11.152;2023-04-24T07:10:38;3.20;;;1.60;;
14768;SDS011;7476;49.404;11.152;2023-04-24T07:13:05;2.03;;;1.33;;
14768;SDS011;7476;49.404;11.152;2023-04-24T07:15:32;2.27;;;1.50;;
14768;SDS011;7476;49.404;11.152;2023-04-24T07:17:59;1.40;;;1.30;;
14768;SDS011;7476;49.404;11.152;2023-04-24T07:20:25;1.40;;;1.30;;
14768;SDS011;7476;49.404;11.152;2023-04-24T07:22:53;1.63;;;1.23;;
14768;SDS011;7476;49.404;11.152;2023-04-24T07:25:20;1.60;;;1.30;;
14768;SDS011;7476;49.404;11.152;2023-04-24T07:27:46;1.87;;;1.10;;
14768;SDS011;7476;49.404;11.152;2023-04-24T07:30:14;1.47;;;1.30;;
14768;SDS011;7476;49.404;11.152;2023-04-24T07:32:41;3.20;;;1.47;;
14768;SDS011;7476;49.404;11.152;2023-04-24T07:35:08;2.50;;;1.60;;
14768;SDS011;7476;49.404;11.152;2023-04-24T07:37:35;1.67;;;1.50;;
14768;SDS011;7476;49.404;11.152;2023-04-24T07:40:03;1.93;;;1.60;;
14768;SDS011;7476;49.404;11.152;2023-04-24T07:42:30;2.00;;;1.67;;
14768;SDS011;7476;49.404;11.152;2023-04-24T07:44:59;1.90;;;1.70;;
14768;SDS011;7476;49.404;11.152;2023-04-24T07:47:26;1.93;;;1.83;;
14768;SDS011;7476;49.404;11.152;2023-04-24T07:49:52;3.33;;;1.87;;
14768;SDS011;7476;49.404;11.152;2023-04-24T07:52:19;2.90;;;1.90;;
14768;SDS011;7476;49.404;11.152;2023-04-24T07:54:46;2.27;;;2.00;;
14768;SDS011;7476;49.404;11.152;2023-04-24T07:57:14;1.73;;;1.60;;
14768;SDS011;7476;49.404;11.152;2023-04-24T07:59:40;1.90;;;1.70;;
14768;SDS011;7476;49.404;11.152;2023-04-24T08:02:07;2.20;;;2.00;;
14768;SDS011;7476;49.404;11.152;2023-04-24T08:04:34;2.10;;;1.90;;
14768;SDS011;7476;49.404;11.152;2023-04-24T08:07:01;3.00;;;1.80;;
14768;SDS011;7476;49.404;11.152;2023-04-24T08:09:28;2.40;;;1.70;;
14768;SDS011;7476;49.404;11.152;2023-04-24T08:11:54;1.67;;;1.57;;
14768;SDS011;7476;49.404;11.152;2023-04-24T08:14:22;2.37;;;2.00;;
14768;SDS011;7476;49.404;11.152;2023-04-24T08:16:49;2.53;;;1.97;;
14768;SDS011;7476;49.404;11.152;2023-04-24T08:19:16;2.57;;;2.10;;
14768;SDS011;7476;49.404;11.152;2023-04-24T08:21:42;2.10;;;1.90;;
14768;SDS011;7476;49.404;11.152;2023-04-24T08:24:09;2.30;;;2.10;;
14768;SDS011;7476;49.404;11.152;2023-04-24T08:26:36;3.03;;;1.90;;
14768;SDS011;7476;49.404;11.152;2023-04-24T08:29:02;2.53;;;2.20;;
14768;SDS011;7476;49.404;11.152;2023-04-24T08:31:30;2.50;;;2.20;;
14768;SDS011;7476;49.404;11.152;2023-04-24T08:33:57;3.37;;;2.50;;
14768;SDS011;7476;49.404;11.152;2023-04-24T08:36:24;3.40;;;2.40;;
14768;SDS011;7476;49.404;11.152;2023-04-24T08:38:51;2.80;;;2.40;;
14768;SDS011;7476;49.404;11.152;2023-04-24T08:41:18;2.53;;;2.27;;
14768;SDS011;7476;49.404;11.152;2023-04-24T08:43:46;2.63;;;2.43;;
14768;SDS011;7476;49.404;11.152;2023-04-24T08:46:13;2.60;;;2.40;;
14768;SDS011;7476;49.404;11.152;2023-04-24T08:48:43;2.60;;;2.40;;
14768;SDS011;7476;49.404;11.152;2023-04-24T08:51:11;2.47;;;2.20;;
14768;SDS011;7476;49.404;11.152;2023-04-24T08:53:37;2.63;;;2.30;;
14768;SDS011;7476;49.404;11.152;2023-04-24T08:56:06;4.03;;;2.40;;
14768;SDS011;7476;49.404;11.152;2023-04-24T08:58:33;2.13;;;1.90;;
14768;SDS011;7476;49.404;11.152;2023-04-24T09:01:01;3.27;;;2.47;;
14768;SDS011;7476;49.404;11.152;2023-04-24T09:03:28;4.00;;;2.53;;
14768;SDS011;7476;49.404;11.152;2023-04-24T09:05:57;3.50;;;2.60;;
14768;SDS011;7476;49.404;11.152;2023-04-24T09:08:25;2.57;;;2.30;;
14768;SDS011;7476;49.404;11.152;2023-04-24T09:10:54;3.83;;;2.43;;
14768;SDS011;7476;49.404;11.152;2023-04-24T09:13:23;3.03;;;2.37;;
14768;SDS011;7476;49.404;11.152;2023-04-24T09:15:50;4.73;;;2.40;;
14768;SDS011;7476;49.404;11.152;2023-04-24T09:18:17;2.50;;;2.30;;
14768;SDS011;7476;49.404;11.152;2023-04-24T09:21:01;2.43;;;2.10;;
14768;SDS011;7476;49.404;11.152;2023-04-24T09:23:30;2.70;;;2.40;;
14768;SDS011;7476;49.404;11.152;2023-04-24T09:25:58;3.47;;;2.43;;
14768;SDS011;7476;49.404;11.152;2023-04-24T09:28:26;3.33;;;2.60;;
14768;SDS011;7476;49.404;11.152;2023-04-24T09:31:01;2.83;;;2.20;;
14768;SDS011;7476;49.404;11.152;2023-04-24T09:33:32;2.60;;;2.27;;
14768;SDS011;7476;49.404;11.152;2023-04-24T09:36:00;2.20;;;2.00;;
14768;SDS011;7476;49.404;11.152;2023-04-24T09:38:31;2.40;;;2.20;;
14768;SDS011;7476;49.404;11.152;2023-04-24T09:41:00;3.00;;;2.30;;
14768;SDS011;7476;49.404;11.152;2023-04-24T09:43:28;2.47;;;2.27;;
14768;SDS011;7476;49.404;11.152;2023-04-24T09:45:55;2.20;;;2.00;;
14768;SDS011;7476;49.404;11.152;2023-04-24T09:48:29;2.53;;;2.33;;
14768;SDS011;7476;49.404;11.152;2023-04-24T09:50:56;3.03;;;2.43;;
14768;SDS011;7476;49.404;11.152;2023-04-24T09:53:25;2.30;;;2.10;;
14768;SDS011;7476;49.404;11.152;2023-04-24T09:55:51;2.57;;;2.20;;
14768;SDS011;7476;49.404;11.152;2023-04-24T09:58:18;2.53;;;2.10;;
14768;SDS011;7476;49.404;11.152;2023-04-24T10:00:53;2.30;;;2.10;;
14768;SDS011;7476;49.404;11.152;2023-04-24T10:03:21;2.40;;;2.10;;
14768;SDS011;7476;49.404;11.152;2023-04-24T10:05:51;2.43;;;2.23;;
14768;SDS011;7476;49.404;11.152;2023-04-24T10:08:18;2.30;;;2.10;;
14768;SDS011;7476;49.404;11.152;2023-04-24T10:10:46;2.10;;;1.90;;
14768;SDS011;7476;49.404;11.152;2023-04-24T10:13:13;2.47;;;1.70;;
14768;SDS011;7476;49.404;11.152;2023-04-24T10:15:41;2.20;;;1.87;;
14768;SDS011;7476;49.404;11.152;2023-04-24T10:18:08;2.40;;;2.20;;
14768;SDS011;7476;49.404;11.152;2023-04-24T10:20:36;2.30;;;1.90;;
14768;SDS011;7476;49.404;11.152;2023-04-24T10:23:04;2.33;;;2.10;;
14768;SDS011;7476;49.404;11.152;2023-04-24T10:25:32;2.97;;;2.00;;
14768;SDS011;7476;49.404;11.152;2023-04-24T10:28:01;1.70;;;1.60;;
14768;SDS011;7476;49.404;11.152;2023-04-24T10:30:29;1.90;;;1.70;;
14768;SDS011;7476;49.404;11.152;2023-04-24T10:32:59;1.80;;;1.70;;
14768;SDS011;7476;49.404;11.152;2023-04-24T10:35:26;2.63;;;1.83;;
14768;SDS011;7476;49.404;11.152;2023-04-24T10:37:57;2.23;;;1.73;;
14768;SDS011;7476;49.404;11.152;2023-04-24T10:40:27;1.67;;;1.57;;
14768;SDS011;7476;49.404;11.152;2023-04-24T10:42:57;3.20;;;1.57;;
14768;SDS011;7476;49.404;11.152;2023-04-24T10:45:25;2.83;;;1.67;;
14768;SDS011;7476;49.404;11.152;2023-04-24T10:47:52;1.70;;;1.60;;
14768;SDS011;7476;49.404;11.152;2023-04-24T10:50:22;2.10;;;1.50;;
14768;SDS011;7476;49.404;11.152;2023-04-24T10:52:49;2.83;;;1.80;;
14768;SDS011;7476;49.404;11.152;2023-04-24T10:55:29;2.23;;;1.63;;
14768;SDS011;7476;49.404;11.152;2023-04-24T10:58:06;1.80;;;1.70;;
14768;SDS011;7476;49.404;11.152;2023-04-24T11:00:34;1.60;;;1.40;;
14768;SDS011;7476;49.404;11.152;2023-04-24T11:03:04;1.63;;;1.50;;
14768;SDS011;7476;49.404;11.152;2023-04-24T11:05:49;1.83;;;1.40;;
14768;SDS011;7476;49.404;11.152;2023-04-24T11:11:09;2.30;;;1.70;;
14768;SDS011;7476;49.404;11.152;2023-04-24T11:16:45;3.73;;;1.60;;
14768;SDS011;7476;49.404;11.152;2023-04-24T11:19:19;1.60;;;1.50;;
14768;SDS011;7476;49.404;11.152;2023-04-24T11:21:53;1.87;;;1.60;;
14768;SDS011;7476;49.404;11.152;2023-04-24T11:24:25;1.83;;;1.70;;
14768;SDS011;7476;49.404;11.152;2023-04-24T11:26:57;2.43;;;1.23;;
14768;SDS011;7476;49.404;11.152;2023-04-24T11:29:39;1.90;;;1.53;;
14768;SDS011;7476;49.404;11.152;2023-04-24T11:32:19;2.07;;;1.60;;
14768;SDS011;7476;49.404;11.152;2023-04-24T11:34:50;1.43;;;1.33;;
14768;SDS011;7476;49.404;11.152;2023-04-24T11:37:18;4.90;;;1.90;;
14768;SDS011;7476;49.404;11.152;2023-04-24T11:39:44;1.67;;;1.57;;
14768;SDS011;7476;49.404;11.152;2023-04-24T11:42:13;1.53;;;1.43;;
14768;SDS011;7476;49.404;11.152;2023-04-24T11:44:40;1.77;;;1.50;;
14768;SDS011;7476;49.404;11.152;2023-04-24T11:47:08;1.60;;;1.50;;
14768;SDS011;7476;49.404;11.152;2023-04-24T11:49:37;2.40;;;1.73;;
14768;SDS011;7476;49.404;11.152;2023-04-24T11:52:04;2.00;;;1.80;;
14768;SDS011;7476;49.404;11.152;2023-04-24T11:54:31;2.30;;;2.10;;
14768;SDS011;7476;49.404;11.152;2023-04-24T11:56:58;2.17;;;1.97;;
14768;SDS011;7476;49.404;11.152;2023-04-24T11:59:25;3.00;;;2.10;;
14768;SDS011;7476;49.404;11.152;2023-04-24T12:01:51;2.40;;;2.20;;
14768;SDS011;7476;49.404;11.152;2023-04-24T12:04:18;4.10;;;2.00;;
14768;SDS011;7476;49.404;11.152;2023-04-24T12:07:01;2.77;;;1.90;;
14768;SDS011;7476;49.404;11.152;2023-04-24T12:09:28;2.30;;;2.10;;
14768;SDS011;7476;49.404;11.152;2023-04-24T12:12:05;2.67;;;1.90;;
14768;SDS011;7476;49.404;11.152;2023-04-24T12:14:32;1.97;;;1.87;;
14768;SDS011;7476;49.404;11.152;2023-04-24T12:17:07;2.97;;;1.80;;
14768;SDS011;7476;49.404;11.152;2023-04-24T12:19:34;6.07;;;1.93;;
14768;SDS011;7476;49.404;11.152;2023-04-24T12:22:02;2.27;;;2.00;;
14768;SDS011;7476;49.404;11.152;2023-04-24T12:24:30;2.47;;;1.90;;
14768;SDS011;7476;49.404;11.152;2023-04-24T12:26:57;2.03;;;1.83;;
14768;SDS011;7476;49.404;11.152;2023-04-24T12:29:26;2.20;;;2.00;;
14768;SDS011;7476;49.404;11.152;2023-04-24T12:31:53;2.07;;;1.87;;
14768;SDS011;7476;49.404;11.152;2023-04-24T12:34:20;1.80;;;1.70;;
14768;SDS011;7476;49.404;11.152;2023-04-24T12:36:48;2.77;;;1.93;;
14768;SDS011;7476;49.404;11.152;2023-04-24T12:39:16;2.67;;;1.80;;
14768;SDS011;7476;49.404;11.152;2023-04-24T12:41:50;2.67;;;2.17;;
14768;SDS011;7476;49.404;11.152;2023-04-24T12:44:28;2.10;;;2.00;;
14768;SDS011;7476;49.404;11.152;2023-04-24T12:46:55;2.10;;;1.90;;
14768;SDS011;7476;49.404;11.152;2023-04-24T12:49:22;2.73;;;1.97;;
14768;SDS011;7476;49.404;11.152;2023-04-24T12:51:48;2.10;;;1.90;;
14768;SDS011;7476;49.404;11.152;2023-04-24T12:54:16;1.77;;;1.50;;
14768;SDS011;7476;49.404;11.152;2023-04-24T12:56:43;1.70;;;1.60;;
14768;SDS011;7476;49.404;11.152;2023-04-24T12:59:10;1.60;;;1.50;;
14768;SDS011;7476;49.404;11.152;2023-04-24T13:01:37;2.20;;;1.60;;
14768;SDS011;7476;49.404;11.152;2023-04-24T13:04:04;2.03;;;1.87;;
14768;SDS011;7476;49.404;11.152;2023-04-24T13:06:31;2.33;;;1.50;;
14768;SDS011;7476;49.404;11.152;2023-04-24T13:08:57;2.03;;;1.60;;
14768;SDS011;7476;49.404;11.152;2023-04-24T13:11:25;1.70;;;1.60;;
14768;SDS011;7476;49.404;11.152;2023-04-24T13:13:52;2.30;;;1.70;;
14768;SDS011;7476;49.404;11.152;2023-04-24T13:16:19;1.77;;;1.57;;
14768;SDS011;7476;49.404;11.152;2023-04-24T13:18:45;2.10;;;1.70;;
14768;SDS011;7476;49.404;11.152;2023-04-24T13:21:12;1.87;;;1.77;;
14768;SDS011;7476;49.404;11.152;2023-04-24T13:23:38;2.73;;;1.87;;
14768;SDS011;7476;49.404;11.152;2023-04-24T13:26:06;2.30;;;2.10;;
14768;SDS011;7476;49.404;11.152;2023-04-24T13:28:34;2.10;;;1.90;;
14768;SDS011;7476;49.404;11.152;2023-04-24T13:31:00;3.70;;;2.10;;
14768;SDS011;7476;49.404;11.152;2023-04-24T13:33:27;2.40;;;2.20;;
14768;SDS011;7476;49.404;11.152;2023-04-24T13:35:54;3.77;;;2.23;;
14768;SDS011;7476;49.404;11.152;2023-04-24T13:38:20;2.20;;;2.00;;
14768;SDS011;7476;49.404;11.152;2023-04-24T13:40:47;2.60;;;1.87;;
14768;SDS011;7476;49.404;11.152;2023-04-24T13:43:14;2.10;;;1.90;;
14768;SDS011;7476;49.404;11.152;2023-04-24T13:45:42;3.17;;;2.00;;
14768;SDS011;7476;49.404;11.152;2023-04-24T13:48:08;2.50;;;2.10;;
14768;SDS011;7476;49.404;11.152;2023-04-24T13:50:35;2.20;;;2.00;;
14768;SDS011;7476;49.404;11.152;2023-04-24T13:53:02;2.37;;;2.00;;
14768;SDS011;7476;49.404;11.152;2023-04-24T13:55:28;3.20;;;2.00;;
14768;SDS011;7476;49.404;11.152;2023-04-24T13:57:55;2.20;;;2.00;;
14768;SDS011;7476;49.404;11.152;2023-04-24T14:00:22;2.70;;;2.50;;
14768;SDS011;7476;49.404;11.152;2023-04-24T14:02:50;3.60;;;2.50;;
14768;SDS011;7476;49.404;11.152;2023-04-24T14:05:17;3.50;;;2.70;;
14768;SDS011;7476;49.404;11.152;2023-04-24T14:07:44;3.40;;;2.60;;
14768;SDS011;7476;49.404;11.152;2023-04-24T14:10:11;3.30;;;3.00;;
14768;SDS011;7476;49.404;11.152;2023-04-24T14:12:37;3.43;;;3.13;;
14768;SDS011;7476;49.404;11.152;2023-04-24T14:15:04;2.90;;;2.70;;
14768;SDS011;7476;49.404;11.152;2023-04-24T14:17:32;3.63;;;3.00;;
14768;SDS011;7476;49.404;11.152;2023-04-24T14:20:00;3.00;;;2.70;;
14768;SDS011;7476;49.404;11.152;2023-04-24T14:22:26;2.83;;;2.50;;
14768;SDS011;7476;49.404;11.152;2023-04-24T14:24:53;2.50;;;2.30;;
14768;SDS011;7476;49.404;11.152;2023-04-24T14:27:19;2.80;;;2.13;;
14768;SDS011;7476;49.404;11.152;2023-04-24T14:29:46;3.20;;;2.30;;
14768;SDS011;7476;49.404;11.152;2023-04-24T14:32:13;2.27;;;1.90;;
14768;SDS011;7476;49.404;11.152;2023-04-24T14:34:40;2.30;;;2.00;;
14768;SDS011;7476;49.404;11.152;2023-04-24T14:37:08;2.30;;;2.10;;
14768;SDS011;7476;49.404;11.152;2023-04-24T14:39:35;2.30;;;2.10;;
14768;SDS011;7476;49.404;11.152;2023-04-24T14:42:01;2.43;;;2.10;;
14768;SDS011;7476;49.404;11.152;2023-04-24T14:44:28;2.57;;;2.30;;
14768;SDS011;7476;49.404;11.152;2023-04-24T14:46:54;2.73;;;2.40;;
14768;SDS011;7476;49.404;11.152;2023-04-24T14:49:21;2.87;;;2.60;;
14768;SDS011;7476;49.404;11.152;2023-04-24T14:51:49;2.70;;;2.40;;
14768;SDS011;7476;49.404;11.152;2023-04-24T14:54:16;2.40;;;2.20;;
14768;SDS011;7476;49.404;11.152;2023-04-24T14:56:44;3.30;;;2.50;;